Weather History for KHNZ - April, 2013

Change the Weather History Date:

Friday, April 19, 2013

  Actual Average (KTDF) Record (KTDF)
Temperature  
Mean Temperature 72 °F -  
Max Temperature 81 °F 71 °F 93 °F (2002)
Min Temperature 63 °F 47 °F 26 °F (2001)
Cooling Degree Days 7    
Growing Degree Days 22 (Base 50)    
Moisture  
Dew Point 62 °F    
Average Humidity 79    
Maximum Humidity 96    
Minimum Humidity 52    
Precipitation  
Precipitation 0.80 in - - ()
Sea Level Pressure  
Sea Level Pressure 29.87 in    
Wind  
Wind Speed 10 mph (South)    
Max Wind Speed 29 mph    
Max Gust Speed 52 mph    
Visibility 10 miles    
Events Rain    
Averages and records for this station are not official NWS values.
T = Trace of Precipitation, MM = Missing Value Source: NWS Daily Summary

Daily Weather History Graph

Daily Weather History Graph

Search for Another Location

Airport or City:

Trip Planner

Search our weather history database for the weather conditions in past years. The results will help you decide how hot, cold, wet, or windy it might be!

Date:

Astronomy

Apr. 19, 2013 Rise Set
Actual Time 6:35 AM EDT 7:51 PM EDT
Civil Twilight 6:08 AM EDT 8:18 PM EDT
Nautical Twilight 5:36 AM EDT 8:50 PM EDT
Astronomical Twilight 5:02 AM EDT 9:24 PM EDT
Moon 1:44 PM EDT (4/19) 2:38 AM EDT (4/19)
Length of Visible Light 14h 10m
Length of Day
13h 16m
First Quarter, 61% of the Moon is Illuminated
Apr 19
First Quarter
Apr 25
Full
May 2
Last Quarter
May 9
New
May 18
First Quarter

Hourly Weather History & Observations

Time (EDT) Temp. Heat Index Dew Point Humidity Pressure Visibility Wind Dir Wind Speed Gust Speed Precip Events Conditions
12:15 AM 64.8 °F - 58.1 °F 79% 30.06 in 10.0 mi South 9.2 mph - N/A   Clear
12:35 AM 64.4 °F - 58.3 °F 80% 30.05 in 10.0 mi South 8.1 mph - N/A   Clear
12:55 AM 64.4 °F - 58.8 °F 82% 30.04 in 10.0 mi South 6.9 mph - N/A   Scattered Clouds
1:15 AM 64.0 °F - 59.0 °F 84% 30.03 in 10.0 mi South 5.8 mph - N/A   Scattered Clouds
1:35 AM 64.2 °F - 59.4 °F 84% 30.02 in 10.0 mi South 6.9 mph - N/A   Mostly Cloudy
1:55 AM 63.7 °F - 59.2 °F 85% 30.01 in 10.0 mi SSE 5.8 mph - N/A   Overcast
2:15 AM 63.5 °F - 59.9 °F 88% 30.00 in 10.0 mi South 5.8 mph - N/A   Mostly Cloudy
2:55 AM 64.4 °F - 60.3 °F 86% 29.98 in 10.0 mi South 4.6 mph - N/A   Overcast
3:15 AM 64.8 °F - 60.8 °F 87% 29.97 in 10.0 mi South 5.8 mph - N/A   Overcast
3:35 AM 65.3 °F - 61.3 °F 87% 29.97 in 10.0 mi South 8.1 mph - N/A   Overcast
3:55 AM 65.5 °F - 61.7 °F 88% 29.96 in 10.0 mi South 8.1 mph - N/A   Overcast
4:15 AM 65.3 °F - 61.7 °F 88% 29.94 in 10.0 mi South 9.2 mph - N/A   Mostly Cloudy
4:35 AM 65.3 °F - 61.7 °F 88% 29.94 in 10.0 mi South 6.9 mph - N/A   Mostly Cloudy
4:55 AM 65.8 °F - 62.1 °F 88% 29.94 in 10.0 mi South 6.9 mph - N/A   Overcast
5:15 AM 65.8 °F - 62.6 °F 89% 29.94 in 10.0 mi South 6.9 mph - N/A   Overcast
5:35 AM 65.8 °F - 62.6 °F 89% 29.94 in 10.0 mi South 6.9 mph - N/A   Overcast
5:55 AM 66.2 °F - 62.8 °F 89% 29.93 in 10.0 mi South 8.1 mph - N/A   Overcast
6:15 AM 66.2 °F - 63.0 °F 89% 29.93 in 10.0 mi South 6.9 mph - N/A   Overcast
6:35 AM 66.2 °F - 63.1 °F 90% 29.93 in 10.0 mi South 8.1 mph - N/A   Overcast
6:55 AM 66.2 °F - 63.5 °F 91% 29.93 in 10.0 mi South 6.9 mph - N/A   Overcast
7:15 AM 66.6 °F - 63.5 °F 90% 29.93 in 10.0 mi South 8.1 mph - N/A   Overcast
7:35 AM 66.6 °F - 63.7 °F 90% 29.94 in 7.0 mi South 6.9 mph - N/A   Overcast
7:55 AM 66.6 °F - 63.7 °F 90% 29.94 in 7.0 mi South 8.1 mph - N/A   Overcast
8:15 AM 68.0 °F - 64.2 °F 88% 29.94 in 10.0 mi South 10.4 mph 16.1 mph N/A   Overcast
8:35 AM 68.9 °F - 63.7 °F 83% 29.93 in 10.0 mi South 9.2 mph 19.6 mph N/A   Overcast
8:55 AM 68.9 °F - 63.7 °F 83% 29.93 in 10.0 mi South 11.5 mph 18.4 mph N/A   Overcast
9:15 AM 69.1 °F - 63.5 °F 82% 29.93 in 10.0 mi South 11.5 mph 19.6 mph N/A   Overcast
9:35 AM 70.5 °F - 63.7 °F 79% 29.93 in 10.0 mi SSW 15.0 mph 19.6 mph N/A   Overcast
9:55 AM 70.9 °F - 62.8 °F 75% 29.93 in 10.0 mi South 13.8 mph 20.7 mph N/A   Overcast
10:15 AM 71.1 °F - 61.9 °F 73% 29.93 in 10.0 mi South 15.0 mph 29.9 mph N/A   Overcast
10:35 AM 71.4 °F - 62.1 °F 72% 29.92 in 10.0 mi South 10.4 mph 25.3 mph N/A   Overcast
10:55 AM 71.6 °F - 62.1 °F 72% 29.92 in 10.0 mi SSW 10.4 mph 24.2 mph N/A   Overcast
11:15 AM 72.5 °F - 62.8 °F 71% 29.91 in 10.0 mi South 15.0 mph 21.9 mph N/A   Overcast
11:35 AM 73.0 °F - 63.0 °F 71% 29.91 in 10.0 mi South 15.0 mph 24.2 mph N/A   Overcast
11:55 AM 74.1 °F - 63.3 °F 69% 29.90 in 10.0 mi South 11.5 mph 21.9 mph N/A   Overcast
12:15 PM 75.4 °F - 63.1 °F 66% 29.88 in 10.0 mi South 19.6 mph 25.3 mph N/A   Mostly Cloudy
12:35 PM 76.8 °F - 63.5 °F 63% 29.86 in 10.0 mi South 18.4 mph 27.6 mph N/A   Mostly Cloudy
12:55 PM 76.6 °F - 63.5 °F 64% 29.85 in 10.0 mi South 17.3 mph 34.5 mph N/A   Mostly Cloudy
1:15 PM 77.5 °F - 63.9 °F 63% 29.84 in 10.0 mi South 11.5 mph 20.7 mph N/A   Mostly Cloudy
1:35 PM 77.9 °F - 63.7 °F 61% 29.82 in 10.0 mi South 11.5 mph 24.2 mph N/A   Mostly Cloudy
1:55 PM 79.9 °F - 63.9 °F 58% 29.81 in 10.0 mi South 15.0 mph 25.3 mph N/A   Mostly Cloudy
2:15 PM 78.3 °F - 62.2 °F 58% 29.81 in 10.0 mi South 18.4 mph 26.5 mph N/A   Mostly Cloudy
2:35 PM 78.8 °F - 62.2 °F 57% 29.80 in 10.0 mi South 18.4 mph 27.6 mph N/A   Mostly Cloudy
2:55 PM 79.7 °F - 63.0 °F 56% 29.78 in 10.0 mi South 12.7 mph 21.9 mph N/A   Scattered Clouds
3:15 PM 79.2 °F - 62.6 °F 57% 29.78 in 10.0 mi South 20.7 mph 28.8 mph N/A   Scattered Clouds
3:35 PM 79.0 °F - 62.4 °F 57% 29.77 in 10.0 mi South 16.1 mph 25.3 mph N/A   Scattered Clouds
3:55 PM 79.7 °F - 62.6 °F 56% 29.75 in 10.0 mi South 13.8 mph 26.5 mph N/A   Scattered Clouds
4:15 PM 79.7 °F - 62.2 °F 55% 29.73 in 10.0 mi South 16.1 mph 27.6 mph N/A   Scattered Clouds
4:35 PM 81.0 °F 81.9 °F 61.9 °F 52% 29.71 in 10.0 mi South 16.1 mph 31.1 mph N/A   Scattered Clouds
4:55 PM 80.2 °F 81.5 °F 62.6 °F 55% 29.72 in 10.0 mi South 17.3 mph 25.3 mph N/A   Mostly Cloudy
5:15 PM 79.7 °F - 63.0 °F 56% 29.72 in 10.0 mi South 13.8 mph 25.3 mph N/A   Mostly Cloudy
5:35 PM 79.2 °F - 63.5 °F 59% 29.71 in 10.0 mi South 20.7 mph 29.9 mph N/A   Mostly Cloudy
5:55 PM 79.0 °F - 63.5 °F 59% 29.71 in 10.0 mi South 11.5 mph 24.2 mph N/A   Mostly Cloudy
6:15 PM 78.8 °F - 62.1 °F 56% 29.71 in 10.0 mi South 16.1 mph 26.5 mph N/A   Mostly Cloudy
6:35 PM 67.3 °F - 62.6 °F 85% 29.74 in 1.8 mi SW 15.0 mph 51.8 mph 0.24 in Rain Heavy Rain
6:55 PM 65.3 °F - 63.3 °F 93% 29.77 in 7.0 mi SSW 17.3 mph 24.2 mph 0.38 in Rain Light Rain
7:15 PM 65.7 °F - 63.9 °F 94% 29.79 in 4.0 mi SW 28.8 mph 35.7 mph 0.16 in Rain Heavy Rain
7:35 PM 64.8 °F - 63.1 °F 94% 29.79 in 5.0 mi SW 16.1 mph 27.6 mph 0.24 in Rain Rain
7:55 PM 64.6 °F - 63.0 °F 94% 29.77 in 7.0 mi SSW 10.4 mph - 0.30 in Rain Rain
8:15 PM 64.8 °F - 63.5 °F 96% 29.79 in 10.0 mi SSW 12.7 mph - 0.01 in Rain Light Rain
8:35 PM 64.6 °F - 63.1 °F 95% 29.80 in 10.0 mi SSW 10.4 mph 17.3 mph 0.02 in Rain Light Rain
8:55 PM 64.6 °F - 63.1 °F 95% 29.81 in 10.0 mi SSW 11.5 mph 19.6 mph 0.03 in Rain Light Rain
9:15 PM 64.6 °F - 63.1 °F 95% 29.81 in 10.0 mi SSW 12.7 mph 19.6 mph 0.01 in Rain Light Rain
9:35 PM 64.6 °F - 63.1 °F 95% 29.81 in 10.0 mi SSW 11.5 mph 19.6 mph 0.02 in Rain Rain
9:55 PM 64.6 °F - 63.1 °F 95% 29.81 in 10.0 mi SSW 13.8 mph 21.9 mph 0.03 in Rain Light Rain
10:15 PM 64.4 °F - 63.0 °F 95% 29.80 in 10.0 mi SSW 12.7 mph 18.4 mph 0.02 in Rain Light Rain
10:35 PM 64.4 °F - 63.0 °F 95% 29.79 in 10.0 mi South 12.7 mph - 0.03 in Rain Rain
10:55 PM 64.4 °F - 62.8 °F 94% 29.79 in 10.0 mi SSW 10.4 mph 17.3 mph 0.04 in Rain Light Rain
11:15 PM 64.4 °F - 62.8 °F 94% 29.78 in 10.0 mi SSW 10.4 mph - 0.01 in Rain Light Rain
11:35 PM 64.4 °F - 63.0 °F 95% 29.79 in 10.0 mi SSW 8.1 mph - 0.02 in Rain Light Rain
11:55 PM 64.4 °F - 62.6 °F 94% 29.80 in 10.0 mi SSW 17.3 mph 20.7 mph 0.02 in   Light Drizzle